• Join FlightAware (Why Join?)
  • Login
  • US Flag 
07:03AM EDT


 

Airport Tracker/Info


-or-


 

Live Flight TrackerFlight Track Log ✈ SWA1535 ✈ 02-May-2013 ✈ KFLL - KMDW

Flight Track Log - Related Links

Times and Time Zones

All times are in EDT time to prevent confusion due to time zone crossing. See the SWA1535 flight status page for this flight to view local times or setup timezone preferences in your user account.

Time Position Orientation Groundspeed Altitude Reporting Facility
EDT Latitude Longitude Course Direction KTS MPH feet Rate Location/Type
06:43AM 26.0750 -80.1367 80° East 159 183 900  Level Miami Center
06:43AM 26.0775 -80.1206 80° East 168 193 1,500 2,340 Climbing Miami Center
06:44AM 26.0928 -80.0817 66° East 235 270 3,400 3,360 Climbing Miami Center
06:44AM 26.1136 -80.0844 353° North 236 272 4,900 2,580 Climbing Miami Center
06:45AM 26.1467 -80.1108 324° Northwest 289 333 6,000 2,820 Climbing Miami Center
06:45AM 26.1542 -80.1481 283° West 290 334 7,800 3,000 Climbing Miami Center
06:46AM 26.1717 -80.1950 293° West 279 321 9,000 660 Climbing Miami Center
06:47AM 26.1992 -80.2767 291° West 279 321 9,000 900 Level Miami Center
06:48AM 26.2264 -80.3586 290° West 323 372 10,900 2,220 Climbing Miami Center
06:48AM 26.2381 -80.4028 286° West 353 406 12,000 3,300 Climbing Miami Center
06:49AM 26.2592 -80.4683 290° West 346 398 14,200 3,060 Climbing Miami Center
06:50AM 26.2925 -80.5575 293° West 360 414 17,100 2,400 Climbing Miami Center
06:51AM 26.3608 -80.6639 306° West 368 423 19,000 1,500 Climbing Miami Center
06:52AM 26.4256 -80.7403 313° West 386 444 20,100 1,920 Climbing Miami Center
06:53AM 26.5344 -80.8111 330° Northwest 398 458 22,900 2,460 Climbing Miami Center
06:54AM 26.6328 -80.8772 329° Northwest 412 474 25,100 2,100 Climbing Miami Center
06:55AM 26.7269 -80.9525 324° Northwest 417 480 27,100 1,800 Climbing Miami Center
06:56AM 26.8164 -81.0300 322° Northwest 429 494 28,800 1,560 Climbing Miami Center
06:57AM 26.9144 -81.1103 324° Northwest 439 505 30,300 1,560 Climbing Miami Center
06:58AM 27.0164 -81.1933 324° Northwest 444 511 32,000 1,740 Climbing Miami Center
06:59AM 27.1139 -81.2786 322° Northwest 444 511 33,800 1,980 Climbing Miami Center
07:00AM 27.2139 -81.3569 325° Northwest 444 511 36,000 1,920 Climbing Miami Center
07:01AM 27.3053 -81.4378 322° Northwest 439 505 37,700 1,380 Climbing Miami Center
07:02AM 27.3986 -81.5186 322° Northwest 426 490 38,800 1,140 Climbing Miami Center
07:03AM 27.5003 -81.6022 324° Northwest 421 484 40,000 360 Climbing Miami Center
07:05AM 27.6881 -81.7536 324° Northwest 423 487 40,000  Level Jacksonville Center
07:06AM 27.7806 -81.8325 323° Northwest 418 481 40,000  Level Jacksonville Center
07:07AM 27.8728 -81.9136 322° Northwest 418 481 40,000  Level Jacksonville Center
07:08AM 27.9631 -81.9928 322° Northwest 418 481 40,000  Level Jacksonville Center
07:09AM 28.0617 -82.0647 327° Northwest 418 481 40,000  Level Jacksonville Center
07:10AM 28.1686 -82.1203 335° Northwest 418 481 40,000  Level Jacksonville Center
07:11AM 28.2878 -82.1572 345° North 427 491 40,000  Level Jacksonville Center
07:12AM 28.4089 -82.1939 345° North 437 503 40,000  Level Jacksonville Center
07:13AM 28.5300 -82.2308 345° North 442 509 40,000  Level Jacksonville Center
07:14AM 28.6472 -82.2681 344° North 442 509 40,000  Level Jacksonville Center
07:15AM 28.7683 -82.3053 345° North 437 503 40,000  Level Jacksonville Center
07:16AM 28.8958 -82.3447 345° North 437 503 40,000  Level Jacksonville Center
07:17AM 29.0150 -82.3844 344° North 430 495 40,000  Level Jacksonville Center
07:18AM 29.1342 -82.4219 345° North 437 503 40,000  Level Jacksonville Center
07:19AM 29.2533 -82.4569 346° North 437 503 40,000  Level Jacksonville Center
07:20AM 29.3703 -82.4947 344° North 437 503 40,000  Level Jacksonville Center
07:21AM 29.4894 -82.5322 345° North 437 503 40,000  Level Jacksonville Center
07:22AM 29.6083 -82.5700 345° North 437 503 40,000  Level Jacksonville Center
07:23AM 29.7275 -82.6081 345° North 437 503 40,000  Level Jacksonville Center
07:24AM 29.8486 -82.6508 343° North 437 503 40,000  Level Jacksonville Center
07:25AM 29.9678 -82.6889 345° North 444 511 40,000  Level Jacksonville Center
07:26AM 30.0911 -82.7244 346° North 439 505 40,000  Level Jacksonville Center
07:27AM 30.2100 -82.7628 344° North 439 505 40,000  Level Jacksonville Center
07:28AM 30.3292 -82.8036 344° North 439 505 40,000  Level Jacksonville Center
07:29AM 30.4503 -82.8419 345° North 439 505 40,000  Level Jacksonville Center
07:30AM 30.5692 -82.8831 343° North 439 505 40,000  Level Jacksonville Center
07:31AM 30.6883 -82.9239 344° North 439 505 40,000  Level Jacksonville Center
07:32AM 30.8094 -82.9603 346° North 439 505 40,000  Level Jacksonville Center
07:33AM 30.9117 -82.9942 344° North 427 491 40,000  Level Jacksonville Center
07:34AM 31.0264 -83.0331 344° North 427 491 40,000  Level Jacksonville Center
07:36AM 31.3069 -83.1275 344° North 432 497 40,000  Level Atlanta Center
07:37AM 31.4219 -83.1628 345° North 427 491 40,000  Level Atlanta Center
07:38AM 31.5372 -83.2031 343° North 427 491 40,000  Level Atlanta Center
07:39AM 31.6417 -83.2389 344° North 422 486 40,000  Level Atlanta Center
07:40AM 31.7567 -83.2744 345° North 422 486 40,000  Level Atlanta Center
07:41AM 31.8717 -83.3150 343° North 422 486 40,000  Level Atlanta Center
07:42AM 31.9889 -83.3533 344° North 427 491 40,000  Level Atlanta Center
07:43AM 32.1039 -83.3917 344° North 427 491 40,000  Level Atlanta Center
07:44AM 32.2211 -83.4325 344° North 427 491 40,000  Level Atlanta Center
07:45AM 32.3339 -83.4711 344° North 422 486 40,000  Level Atlanta Center
07:46AM 32.4531 -83.5119 344° North 422 486 40,000  Level Atlanta Center
07:47AM 32.5681 -83.5508 344° North 427 491 40,000  Level Atlanta Center
07:48AM 32.6872 -83.5922 344° North 427 491 40,000  Level Atlanta Center
07:49AM 32.8042 -83.6336 343° North 435 501 40,000  Level Atlanta Center
07:50AM 32.9233 -83.6725 345° North 435 501 40,000  Level Atlanta Center
07:51AM 33.0425 -83.7167 343° North 435 501 40,000  Level Atlanta Center
07:52AM 33.1614 -83.7558 345° North 440 506 40,000  Level Atlanta Center
07:53AM 33.2806 -83.7953 345° North 434 499 40,000  Level Atlanta Center
07:54AM 33.4100 -83.8422 343° North 434 499 40,000  Level Atlanta Center
07:55AM 33.5269 -83.8819 344° North 434 499 40,000  Level Atlanta Center
07:56AM 33.6439 -83.9239 343° North 434 499 40,000  Level Atlanta Center
07:57AM 33.7608 -83.9614 345° North 434 499 40,000  Level Atlanta Center
07:58AM 33.8778 -84.0039 343° North 434 499 40,000  Level Atlanta Center
07:59AM 33.9967 -84.0439 344° North 434 499 40,000  Level Atlanta Center
08:00AM 34.0969 -84.0864 341° North 434 499 40,000  Level Atlanta Center
08:01AM 34.2181 -84.1242 346° North 434 499 40,000  Level Atlanta Center
08:02AM 34.3286 -84.1694 341° North 434 499 40,000  Level Atlanta Center
08:03AM 34.4619 -84.2153 344° North 439 505 40,000  Level Atlanta Center
08:04AM 34.5789 -84.2558 344° North 439 505 40,000  Level Atlanta Center
08:05AM 34.6978 -84.2964 344° North 439 505 40,000  Level Atlanta Center
08:06AM 34.8144 -84.3397 343° North 439 505 40,000  Level Atlanta Center
08:07AM 34.9292 -84.3833 343° North 433 498 40,000  Level Atlanta Center
08:08AM 35.0458 -84.4244 344° North 433 498 40,000  Level Atlanta Center
08:09AM 35.1625 -84.4656 344° North 438 504 40,000  Level Atlanta Center
08:10AM 35.2792 -84.5094 343° North 438 504 40,000  Level Atlanta Center
08:11AM 35.3958 -84.5508 344° North 438 504 40,000  Level Atlanta Center
08:12AM 35.5125 -84.5925 344° North 438 504 40,000  Level Atlanta Center
08:13AM 35.6314 -84.6367 343° North 438 504 40,000  Level Atlanta Center
08:15AM 35.8439 -84.7125 344° North 439 505 40,000  Level Indianapolis Center
08:16AM 35.9592 -84.7569 343° North 444 511 40,000  Level Indianapolis Center
08:17AM 36.0753 -84.8003 343° North 443 510 40,000  Level Indianapolis Center
08:18AM 36.1931 -84.8444 343° North 444 511 40,000  Level Indianapolis Center
08:19AM 36.3103 -84.8886 343° North 441 507 40,000  Level Indianapolis Center
08:20AM 36.4519 -84.9431 343° North 445 512 40,000  Level Indianapolis Center
08:21AM 36.5717 -84.9867 344° North 448 516 40,000  Level Indianapolis Center
08:22AM 36.6917 -85.0325 343° North 449 517 40,000  Level Indianapolis Center
08:23AM 36.8100 -85.0769 343° North 448 516 40,000  Level Indianapolis Center
08:24AM 36.9289 -85.1225 343° North 446 513 40,000  Level Indianapolis Center
08:25AM 37.0614 -85.1733 343° North 442 509 40,000  Level Indianapolis Center
08:26AM 37.1797 -85.2189 343° North 442 509 40,000  Level Indianapolis Center
08:27AM 37.2964 -85.2633 343° North 438 504 40,000  Level Indianapolis Center
08:28AM 37.4150 -85.3081 343° North 441 507 40,000  Level Indianapolis Center
08:29AM 37.5322 -85.3544 343° North 441 507 40,000  Level Indianapolis Center
08:31AM 37.6517 -85.3897 347° North 443 510 40,000  Level Indianapolis Center
08:32AM 37.7711 -85.4169 350° North 436 502 40,000  Level Indianapolis Center
08:33AM 37.9056 -85.4447 351° North 451 519 40,000  Level Indianapolis Center
08:34AM 38.0269 -85.4725 350° North 445 512 40,000  Level Indianapolis Center
08:35AM 38.1503 -85.4997 350° North 447 514 40,000 -300 Level Indianapolis Center
08:36AM 38.2728 -85.5278 350° North 448 516 39,400 -1,500 Descending Indianapolis Center
08:37AM 38.3947 -85.5550 350° North 445 512 37,000 -2,160 Descending Indianapolis Center
08:38AM 38.5161 -85.5833 350° North 443 510 35,000 -1,200 Descending Indianapolis Center
08:39AM 38.6397 -85.6119 350° North 447 514 34,600 -780 Descending Indianapolis Center
08:40AM 38.7828 -85.6444 350° North 441 507 33,400 -1,020 Descending Indianapolis Center
08:41AM 38.9036 -85.6722 350° North 440 506 32,600 -900 Descending Indianapolis Center
08:42AM 39.0222 -85.7000 350° North 438 504 31,600 -1,020 Descending Indianapolis Center
08:43AM 39.1378 -85.7275 350° North 428 493 30,600 -1,020 Descending Indianapolis Center
08:44AM 39.2533 -85.7539 350° North 423 487 29,600 -1,020 Descending Indianapolis Center
08:45AM 39.3650 -85.7803 350° North 414 476 28,600 -840 Descending Indianapolis Center
08:46AM 39.4967 -85.8111 350° North 405 466 28,000 -300 Descending Indianapolis Center
08:47AM 39.6067 -85.8372 350° North 405 466 28,000  Level Indianapolis Center
08:48AM 39.7147 -85.8622 350° North 401 461 28,000 -840 Level Indianapolis Center
08:49AM 39.8242 -85.8881 350° North 404 465 26,400 -1,860 Descending Indianapolis Center
08:50AM 39.9314 -85.9144 349° North 399 459 24,300 -1,200 Descending Indianapolis Center
08:51AM 40.0606 -85.9450 350° North 397 457 24,000 -180 Descending Indianapolis Center
08:52AM 40.1483 -85.9642 351° North 400 460 24,000 -480 Level Chicago Center
08:53AM 40.2561 -85.9903 350° North 398 458 23,100 -1,020 Descending Chicago Center
08:54AM 40.3822 -86.0219 349° North 386 444 21,900 -1,080 Descending Chicago Center
08:55AM 40.4808 -86.0578 345° North 371 427 20,900 -1,020 Descending Chicago Center
08:56AM 40.5711 -86.1175 333° Northwest 364 419 19,900 -1,020 Descending Chicago Center
08:57AM 40.6617 -86.1783 333° Northwest 366 421 18,900 -1,260 Descending Chicago Center
08:58AM 40.7478 -86.2339 334° Northwest 354 407 17,400 -1,680 Descending Chicago Center
08:59AM 40.8350 -86.2906 334° Northwest 349 402 15,500 -2,100 Descending Chicago Center
09:00AM 40.9375 -86.3583 333° Northwest 343 395 13,200 -2,040 Descending Chicago Center
09:01AM 41.0200 -86.4150 333° Northwest 338 389 11,400 -1,080 Descending Chicago Center
09:02AM 41.0847 -86.4997 315° West 332 382 11,000 -420 Descending Chicago Center
09:03AM 41.1450 -86.5903 311° West 329 379 10,600 -540 Descending Chicago Center
09:04AM 41.2053 -86.6819 311° West 331 381 9,900 -360 Descending Chicago Center
09:05AM 41.2678 -86.7789 311° West 321 369 9,900  Level Chicago Center
09:06AM 41.3269 -86.8683 311° West 324 373 9,900 -120 Level Chicago Center
09:07AM 41.3850 -86.9589 311° West 323 372 9,700 -960 Descending Chicago Center
09:08AM 41.4431 -87.0469 311° West 320 368 8,000 -1,740 Descending Chicago Center
09:09AM 41.5072 -87.1453 311° West 297 342 6,200 -960 Descending Chicago Center
09:11AM 41.5333 -87.2500 288° West 276 318 6,100 -540 Descending Chicago TRACON
09:11AM 41.5500 -87.3333 285° West 279 321 5,200 -1,020 Descending Chicago TRACON
09:12AM 41.5667 -87.4167 285° West 275 316 4,300 -960 Descending Chicago TRACON
09:13AM 41.5686 -87.4364 278° West 275 316 4,100 -240 Descending Chicago Center
09:14AM 41.5675 -87.5361 269° West 272 313 4,000 -60 Descending Chicago Center
09:15AM 41.5783 -87.6322 279° West 267 307 4,000  Level Chicago Center
09:16AM 41.5939 -87.7481 280° West 267 307 4,000  Level Chicago Center
09:17AM 41.6061 -87.8297 281° West 246 283 4,000  Level Chicago Center
09:18AM 41.5733 -87.8758 226° Southwest 204 235 4,000  Level Chicago Center
09:19AM 41.5572 -87.9278 248° West 197 227 4,000  Level Chicago Center
09:20AM 41.5969 -87.9664 324° Northwest 206 237 4,000  Level Chicago Center
09:21AM 41.6511 -87.9233 31° Northeast 197 227 4,000 -480 Level Chicago Center
09:22AM 41.6886 -87.8736 45° Northeast 193 222 3,100 -960 Descending Chicago Center
09:23AM 41.7333 -87.8167 44° Northeast 162 186 2,000 -840 Descending Chicago TRACON
09:24AM 41.7500 -87.7833 56° Northeast 119 137 1,400 -660 Descending Chicago TRACON
09:27AM 41.7833 -87.7500 20° North  Level FlightAware Approximate